Timeline UpdatesTrip UpdatesNews PostsPvt Posts♥♥Travel TipsAdmin PostsConv PostsFollowed PostsChat RequestsBlog PostsPNR Posts

Disclaimer
Search
 
 
Thu Oct 23, 2014 13:28:15 ISTHomeTrainsΣChainsAtlasPNRForumGalleryNewsFAQTripsMembersLoginFeedback
No Recent News for this Train
Other Trains in the News **new
Latest...
.
Fri Jul 29, 2011 (03:19AM)
⇐ Return Journey: Train# 13009-Slip

23010/Doon Express Slip

Time-Table HAS CHANGED.
Sep 02 2014 (12:23AM)
Change Departure Station:
Change Arrival Station:
Post a Train Travel TipPost a Train Travel Tip **new
Post a Comment/Question/Picture/VideoPost a Comment/Question/Picture/Video
Pantry/Catering
???
RSA - Rake Sharing
( 14041-slip+13009-slip) <-> 54092 <-> 54091 <-> ( 24040+23010 )
Rake/Coach Composition
S1(From PNR Blogs)
Loco
News    PNR    Forum    Time-Table    Availability    Fare Chart    Map    Arr/Dep History    Trips    Gallery    ΣChains    X/O    Timeline    
Travel Time: 33h 10m    67 halts    Distance: 1464 km    Avg Speed: 44 km/hr
Type: Mail/Express
Zone: ER/Eastern
Departs @ 21:45
Platform# 1
SMTWTFS
Kotdwar/KTW 
Arrives @ 06:55 +2 nights
Platform# 11
SMTWTFS
Kolkata Howrah Junction/HWH 

67 halts. 260 intermediate Stations between Kotdwar and Kolkata Howrah Junction

Show ALL intermediate Stations  Show Old Time-Table

#TrkCodeStation NameX/OArrivesAvgDepartsAvgHaltPFDay#KmSpeedElevZoneAddress
1|--|KTWKotdwar (1)»  -21:55 21:45-110.043369mNRKotdwar, Uttarakhand
2|--|SNXSaneh Road  22:08 21:58-22:10 22:00-2m--19.430314mNRSaneh Road, Uttar Pradesh
3|--|NBDNajibabad Junction (3)  22:40 22:30-00:05-85 95m1124.375269mNRNajibabad, Uttar Pradesh
4/==/NGGNagina (3)X  00:21 00:23-00:23 00:25-2m--246.863247mNRNagina, Uttar Pradesh
5/==/DPRDhampurX  00:37 00:41-00:39 00:43-2m--263.559236mNRDhampur, Uttar Pradesh
6/==/SEOSeoharaX  00:52 00:57-00:54 00:59-2m--277.349224mNRSeohara, Uttar Pradesh
7/==/MBMoradabad Junction (7)XO  01:55-02:05-10m12123.358201mNRMoradabad, Uttar Pradesh
8/==/RMURampur Junction (3)  02:38 02:33-02:40 02:35-2m--2150.546190mNRRampur, Uttar Pradesh
9/==/BEBareilly Junction (4)XO  03:58 03:57-04:03 04:02-5m--2213.670174mNRBareilly, Uttar Pradesh
10/==/TLHTilharX  04:50 04:47-04:52 04:49-2m--2265.939163mNRTilhar, Uttar Pradesh
11/==/SPNShahjahanpur Junction (3)  05:13 05:17-05:16 05:20-3m--2284.155156mNRShahjahanpur, Uttar Pradesh
12/=-|ROZARoza Junction (4)X  05:24 05:28-05:26 05:30-2m--2291.474156mNRShahjahanpur, Uttar Pradesh
13/==/AJIAnjhi Shahabad  05:45 05:49-05:47 05:51-2m--2314.877148mNRAnjhi Shahabad, Uttar Pradesh
14/==/HRIHardoi (5)X  06:12 06:16-06:14 06:18-2m32347.073146mNRHardoi, Uttar Pradesh
15/==/BLMBalamau Junction (4)XO  06:42 06:45-06:44 06:47-2m--2380.068139mNRBalamau, Uttar Pradesh
16/==/SANSandila (3)X  07:03 07:05-07:05 07:07-2m--2400.333132mNRSandila, Uttar Pradesh
17/==/LKOLucknow Charbagh NR (9)  08:20 08:35-08:35 08:45-15 10m12448.849123mNR226004, Uttar Pradesh
18/==/BBKBarabanki Junction (4)O  09:18 09:20-09:20 09:22-2m--2477.461122mNRPin-225001, Uttar Pradesh
19|--|SGJSafdarGanj  09:38 09:40-09:40 09:42-2m--2495.579116mNRFaizabad Rd, Uttar Pradesh
20|--|DYDDaryabadO  09:55 09:57-09:57 09:59-2m--2515.477116mNRFaizabad Rd, Uttar Pradesh
21|--|RDLRudauli (2)  10:16 10:17-10:18 10:19-2m--2538.572112mNRRudauli, Uttar Pradesh
22|--|SLWSohwal  10:36 10:38-10:38 10:40-2m--2561.337107mNRFaizabad Rd, Uttar Pradesh
23|--|FDFaizabad Junction (5)XO  11:05-11:10-5m--2576.614104mNRFaizabad, Uttar Pradesh
24|--|ACNDAcharya Narendra Dev NagarO  11:19-11:21-2m--2578.830104mNRFaizabad, Uttar Pradesh
25|--|AYAyodhya Junction (3)XO  11:30-11:32-2m--2583.36898mNRAyodhya, Uttar Pradesh
26|--|GGJGoshainGanj (3)  12:00-12:02-2m--2615.06798mNRGoshainganj, Uttar Pradesh
27|--|ABPAkbarpur Junction (2)X  12:22-12:26-4m--2637.27292mNRAkbarpur, Uttar Pradesh
28|--|MLPRMalipur (2)XOO  12:42-12:44-2m--2656.34892mNRMalipur, Uttar Pradesh
29|--|SHGShahganj Junction (4)XOO  13:15-13:20-5m--2681.35890mNRShahganj, Uttar Pradesh
30|--|KSKheta Sarai (1)O  13:31-13:33-2m12692.06288mNRKheta Sarai, Uttar Pradesh
31|--|JNUJaunpur Junction (5)XO  13:55-13:57-2m--2714.73583mNRJaunpur, Uttar Pradesh
32|--|ZBDZafarabad Junction (4)  14:08-14:10-2m--2721.13883mNRNational Highway 56, Uttar Pradesh
33/==/JLLJalalGanj (2)OO  14:29-14:31-2m--2733.13687mNRJalalganj Railway Station, Uttar Pradesh
34/==/KSFKhalispur (2)O  14:50-14:52-2m--2744.54083mNRPhulpur, Uttar Pradesh
35/==/BTPBabatpur (2)X  15:06-15:08-2m--2753.82484mNRSatomahua-Mangari Rd, Uttar Pradesh
36/==/BSBVaranasi Junction (9)X  15:55-16:10-15m82772.32382mNRVaranasi 221002, Uttar Pradesh
37/==/KEIKashi (3)X  16:24-16:26-2m--2777.71585mNRVaranasi, Uttar Pradesh
38/==/MGSMughal Sarai Junction (8)X  17:10-17:30-20m22788.66583mECRDistt: Chandauli Pin 232101, Uttar Pradesh
39/==/CDMRChandauli MajhwarXO  17:46-17:48-2m--2806.07279mECRNational Highway 2, Uttar Pradesh
40/==/SYJSaidrajaO  17:55-17:57-2m--2814.46280mECRSaiyedraja, Uttar Pradesh
41/==/KMSKaramnasaO  18:05-18:07-2m--2822.65878mECRNational Highway 2, Uttar Pradesh
42/==/DGODurgautiO  18:19-18:21-2m--2834.26778mECRDistt Kaimur, Bihar
43/==/BBUBhabua Road (4)  18:29-18:31-2m--2843.28480mECR06187-222222, Bihar
44/==/KTQKudra (2)  18:47-18:49-2m--2865.58092mECRKudra, Bihar
45/==/SSMSasaram Junction (4)  19:08-19:10-2m--2890.859111mECR06184-222051, Bihar
46/==/DOSDehri On Sone (6)  19:28-19:30-2m--2908.449114mECRRohtas(06184-253154), Bihar
47/==/SEBSon Nagar Junction (4)X  19:37-19:39-2m--2914.173110mECRBarun, Bihar
48/==/AUBRAnugraha Narayan Road (4)O  19:48-19:50-2m--2925.041104mECR06186-285271, Bihar
49/==/RFJRafiGanj (4)X  20:24 20:35-20:26 20:37-2m--2955.981102mECRRafiganj, Bihar
50/==/GRRUGuraru  20:44 20:49-20:51-7 2m--2972.050114mECRGuraru, Bihar
51/==/GAYAGaya Junction (9)X  21:17-21:27-10m--2993.539117mECR0631-2220283, Bihar
52/==/TKNTankuppa  21:58-22:00-2m--21013.567127mECRState Highway 70, Bihar
53/==/PRPPaharpurX  22:11-22:13-2m--21025.870150mECRGaya, Bihar
54/==/KQRKoderma Junction (7)  22:51-22:53-2m--21069.979399mECR06534-222410 Koderma, Jharkhand
55/==/PSBParsabad (4)  23:13-23:15-2m--21096.282346mECRNational Highway 2, Jharkhand
56/==/HZDHazaribagh Road (4)  23:31-23:33-2m--21118.281330mECRHazaribagh, Jharkhand
57/==/PNMEParasnath (5)  23:53-23:55-2m--21145.247282mECRGiridih 06532-233419, Jharkhand
58/==/GMONetaji SC Bose Gomoh Junction (6)  00:18-00:28-10m231163.338239mECRGomoh, Jharkhand
59/==/DHNDhanbad Junction (9)X  01:10 01:15-01:20 01:25-10m--31193.172235mECR2319801. Div. HQ ECR, Jharkhand
60/==/BRRBarakar (2)  01:54 01:59-01:56 02:01-2m--31234.143129mERDist. Bardhaman, West Bengal
61/==/ASNAsansol Junction (7)X  02:20 02:25-02:25 02:30-5m--31251.372113mERDist - Bardhaman, West Bengal
62/==/RNGRaniGanj (4)X  02:40 02:45-02:42 02:47-2m--31269.47092mERRaniganj, West Bengal
63/==/DGRDurgapur (5)O  03:04 03:08-03:06 03:10-2m--31293.88571mERDurgapur, West Bengal
64/==/PANPanagarh (4)  03:17 03:21-03:19 03:23-2m--31309.34970mERKaksa, West Bengal
65/==/BWNBarddhaman Junction (8)  04:22-04:27-5m--31357.35534mERDist - Barddhaman, West Bengal
66/==/BDCBandel Junction (7)  05:40-05:45-5m--31424.55814mERdist - HOOGHLY, West Bengal
67/==/CGRChandan Nagar (3)  05:52-05:54-2m--31431.36116mERDist -HOOGHLY - 712136, West Bengal
68/==/SRPSerampore (4)  06:07-06:09-2m--31444.52511mERdist - hooghly, West Bengal
69/==/HWHKolkata Howrah Junction (23)•  06:55--1131464.0-10mERHowrah 711101, West Bengal
Scroll to Top
Scroll to Bottom